GCFV/FUE METAR and TAF weather

Enter ICAO airport designator
Station Type Date Time Source
GCFV METAR 2018/12/10 18:00 UTC NOAA

GCFV 101800Z 03003KT CAVOK 20/15 Q1023


Station Type Date Time Source
GCFV Decoded METAR 2018/12/10 18:00 UTC NOAA

Fuerteventura / Aeropuerto, Spain (GCFV) 28-27N 013-52W 30M
Dec 10, 2018 - 01:00 PM EST / 2018.12.10 1800 UTC
Wind: from the NNE (030 degrees) at 3 MPH (3 KT):0
Visibility: greater than 7 mile(s):0
Temperature: 68 F (20 C)
Dew Point: 59 F (15 C)
Relative Humidity: 72%
Pressure (altimeter): 30.21 in. Hg (1023 hPa)
ob: GCFV 101800Z 03003KT CAVOK 20/15 Q1023
cycle: 18

Station Type Date Time Source
GCFV TAF 2018/12/10 15:27 UTC NOAA

TAF TAF GCFV 101400Z 1015/1115 05005KT CAVOK TX22/1114Z TN16/1106Z
BECMG 1018/1020 34010KT


Example: see airport list